Windom, MN

6:59 AM CDT on June 03, 2015 (GMT -0500)
Saint James Municipal | | Change Station
CLOSE
Current Station
Airport
Location: St. James,
Elevation: 1066 ft
Nearby Weather Stations

Elev 1066 ft 43.99 °N, 94.56 °W | Updated 4 minutes ago

Overcast
Overcast
64 °F
Feels Like 64 °F
N
15
Wind Variable Wind from SSE

Today
High -- | Low -- °F
--% Chance of Precip.
Yesterday
High -- | Low -- °F
Precip. -- in
5:40 AM 8:57 PM
Full, 99% visible
Pressure 29.83 in
Visibility 10.0 miles
Clouds Clear
Dew Point 57 °F
Humidity 77%
Rainfall 0.00 in
Snow Depth Not available.
UV 1 out of 12
Pollen 4.20 out of 12
Air Quality Not available.
Flu Activity Sporadic
METAR KJYG 031155Z AUTO 15013KT 10SM CLR 18/14 A2983 RMK AO2 LTG DSNT NE

More Conditions Fewer Conditions

Pressure 29.83 in
Visibility 10.0 miles
Clouds Clear
Dew Point 57 °F
Humidity 77%
Rainfall 0.00 in
Snow Depth Not available.
UV 1 out of 12
Pollen 4.20 out of 12
Air Quality Not available.
Flu Activity Sporadic
METAR KJYG 031155Z AUTO 15013KT 10SM CLR 18/14 A2983 RMK AO2 LTG DSNT NE

More Conditions Fewer Conditions

10-Day Weather Forecast

×

Almanac

Astronomy

Jun. 03, 2015 Rise Set
Actual Time
Civil Twilight
Nautical Twilight
Astronomical Twilight
Moon
Length of Visible Light
Length of Day
Tomorrow will be .
, % of the Moon is Illuminated

Today's Extremes

State Highs State Lows

Community

WunderPhotos

Upload Photos

1,826,205 photos uploaded!

WunderBlogs® & News

Nearby

Air Quality

  Air Quality AQ Index Pollutant
Not available.

Snow Depth

Station Depth Elevation

Earthquake Activity

City Distance Mag. Time & Date
Minimum magnitude displayed is 2.5.

Coastal Water Temperatures

Place Temperature

Stations

Nearby Weather Stations

Station Location Temp. Windchill Dew Point Humidity Wind Precip. Elev Updated Type